Time;durP1;ratioP1;P1;durP2;ratioP2;P2;SDS_P1;SDS_P2;PMS_P1;PMS_P2;Temp;Humidity;BMP_temperature;BMP_pressure;BME280_temperature;BME280_humidity;BME280_pressure;Samples;Min_cycle;Max_cycle;Signal;HPM_P1;HPM_P2
2023/07/06 00:07:30;;;;;;;0.82;0.50;;;13.70;99.90;;;;;;21021305;28;20645;-47
2023/07/06 00:17:32;;;;;;;1.85;0.52;;;13.60;99.90;;;;;;21028637;28;20117;-48
2023/07/06 00:27:33;;;;;;;1.50;0.30;;;13.40;99.90;;;;;;21006271;28;20071;-48
2023/07/06 00:37:37;;;;;;;0.73;0.40;;;13.20;99.90;;;;;;20999792;28;20111;-51
2023/07/06 00:47:49;;;;;;;0.73;0.40;;;13.20;99.90;;;;;;21008905;28;20083;-48
2023/07/06 00:57:54;;;;;;;2.10;0.50;;;13.40;99.90;;;;;;21011921;28;20079;-43
2023/07/06 01:07:59;;;;;;;2.60;0.50;;;13.60;99.90;;;;;;20994469;28;20071;-53
2023/07/06 01:18:15;;;;;;;1.08;0.45;;;13.50;99.90;;;;;;21010845;28;20075;-43
2023/07/06 01:28:40;;;;;;;0.90;0.50;;;13.40;99.90;;;;;;20999138;28;20510;-50
2023/07/06 01:38:41;;;;;;;0.50;0.40;;;13.40;99.90;;;;;;21023850;28;20199;-49
2023/07/06 01:48:43;;;;;;;1.02;0.40;;;13.40;99.90;;;;;;21007922;28;20153;-47
2023/07/06 01:58:55;;;;;;;0.75;0.40;;;13.40;99.90;;;;;;20993957;28;20115;-51
2023/07/06 02:08:56;;;;;;;0.90;0.60;;;13.30;99.90;;;;;;20991202;28;20108;-49
2023/07/06 02:19:00;;;;;;;0.70;0.38;;;13.20;99.90;;;;;;21010194;28;20123;-48
2023/07/06 02:29:01;;;;;;;0.98;0.40;;;13.50;99.90;;;;;;21017155;28;20430;-51
2023/07/06 02:39:03;;;;;;;0.68;0.40;;;13.80;99.90;;;;;;21009258;28;20932;-48
2023/07/06 02:49:05;;;;;;;1.00;0.40;;;13.90;99.90;;;;;;21005240;28;20469;-48
2023/07/06 02:59:08;;;;;;;0.85;0.40;;;14.00;99.90;;;;;;21003500;28;20108;-51
2023/07/06 03:09:10;;;;;;;1.05;0.60;;;13.90;99.90;;;;;;21011899;28;20438;-46
2023/07/06 03:19:13;;;;;;;0.80;0.50;;;13.40;99.90;;;;;;21029149;28;20094;-49
2023/07/06 03:29:14;;;;;;;0.80;0.50;;;12.80;99.90;;;;;;21010480;28;20083;-46
2023/07/06 03:39:16;;;;;;;0.93;0.60;;;12.60;99.90;;;;;;21002049;28;20110;-49
2023/07/06 03:49:19;;;;;;;1.70;0.60;;;12.60;99.90;;;;;;20903314;28;20122;-46
2023/07/06 03:59:21;;;;;;;1.77;0.50;;;12.50;99.90;;;;;;20907446;28;20087;-47
2023/07/06 04:09:26;;;;;;;1.10;0.65;;;12.50;99.90;;;;;;20921231;28;20071;-45
2023/07/06 04:19:30;;;;;;;1.45;0.90;;;12.70;99.90;;;;;;20929925;28;20490;-52
2023/07/06 04:29:32;;;;;;;1.08;0.60;;;13.10;99.90;;;;;;20921759;28;20111;-47
2023/07/06 04:39:37;;;;;;;2.33;0.68;;;13.30;99.90;;;;;;20930122;28;20111;-51
2023/07/06 04:49:38;;;;;;;1.13;0.50;;;13.40;99.90;;;;;;20932129;28;20161;-47
2023/07/06 04:59:40;;;;;;;1.17;0.50;;;13.40;99.90;;;;;;20958621;28;20133;-47
2023/07/06 05:09:42;;;;;;;1.38;0.60;;;13.40;99.90;;;;;;20961715;28;20500;-53
2023/07/06 05:19:45;;;;;;;0.82;0.50;;;13.50;99.90;;;;;;20943437;28;20469;-47
2023/07/06 05:29:47;;;;;;;1.85;0.70;;;13.50;99.90;;;;;;20954774;28;20075;-47
2023/07/06 05:39:49;;;;;;;2.13;0.80;;;13.60;99.90;;;;;;20937166;28;20115;-49
2023/07/06 05:49:50;;;;;;;0.85;0.60;;;13.50;99.90;;;;;;21014286;28;20457;-51
2023/07/06 05:59:53;;;;;;;3.28;0.70;;;13.30;99.90;;;;;;21016130;28;20117;-44
2023/07/06 06:09:55;;;;;;;3.60;0.98;;;12.70;99.90;;;;;;21001232;28;20072;-48
2023/07/06 06:19:58;;;;;;;2.53;1.20;;;12.10;99.90;;;;;;20993977;28;20048;-50
2023/07/06 06:30:00;;;;;;;2.53;1.38;;;11.70;99.90;;;;;;20989385;28;20076;-49
2023/07/06 06:40:01;;;;;;;1.92;1.35;;;11.40;99.90;;;;;;20993830;28;20503;-46
2023/07/06 06:50:04;;;;;;;2.47;1.30;;;11.50;99.90;;;;;;21011361;28;20574;-52
2023/07/06 07:00:09;;;;;;;2.08;0.82;;;11.70;99.90;;;;;;21024715;28;20113;-48
2023/07/06 07:10:11;;;;;;;2.17;1.00;;;12.00;99.90;;;;;;21012458;28;20128;-49
2023/07/06 07:20:14;;;;;;;1.95;1.08;;;12.00;99.90;;;;;;20999175;28;20068;-51
2023/07/06 07:30:15;;;;;;;1.30;0.88;;;12.60;99.90;;;;;;21020748;28;20465;-52
2023/07/06 07:40:19;;;;;;;1.45;0.90;;;12.70;99.90;;;;;;21012403;28;20611;-51
2023/07/06 07:50:21;;;;;;;1.40;0.70;;;12.60;99.90;;;;;;21020245;28;20438;-49
2023/07/06 08:00:24;;;;;;;1.70;0.80;;;12.70;99.90;;;;;;21006703;28;20137;-54
2023/07/06 08:10:25;;;;;;;0.82;0.57;;;12.90;99.90;;;;;;21018095;28;20433;-53
2023/07/06 08:20:28;;;;;;;1.50;0.90;;;13.00;99.90;;;;;;20991231;28;20574;-49
2023/07/06 08:30:29;;;;;;;2.92;0.80;;;12.90;99.90;;;;;;21003125;28;20068;-50
2023/07/06 08:40:32;;;;;;;2.50;0.90;;;12.50;99.90;;;;;;21014695;28;20116;-47
2023/07/06 08:50:36;;;;;;;1.88;0.85;;;12.80;99.90;;;;;;21002114;28;20091;-44
2023/07/06 09:00:39;;;;;;;1.05;0.65;;;12.40;99.90;;;;;;21030846;28;20453;-50
2023/07/06 09:10:41;;;;;;;1.92;0.80;;;12.50;99.90;;;;;;21026002;28;20079;-51
2023/07/06 09:20:45;;;;;;;1.42;0.75;;;12.40;99.90;;;;;;20988589;28;20162;-52
2023/07/06 09:30:50;;;;;;;2.22;0.60;;;12.50;99.90;;;;;;21014063;28;20149;-44
2023/07/06 09:40:53;;;;;;;1.75;0.90;;;13.50;99.90;;;;;;20993940;28;20071;-48
2023/07/06 09:51:18;;;;;;;1.48;0.63;;;13.70;99.90;;;;;;21002310;28;20102;-49
2023/07/06 10:01:39;;;;;;;1.98;0.90;;;14.00;99.90;;;;;;21011141;28;20121;-49
2023/07/06 10:12:06;;;;;;;3.35;1.08;;;13.80;99.90;;;;;;21000499;28;20111;-48
2023/07/06 10:22:18;;;;;;;2.35;0.90;;;12.90;99.90;;;;;;20999408;28;20064;-48
2023/07/06 10:32:30;;;;;;;3.47;1.50;;;12.50;99.90;;;;;;21018696;28;20158;-49
2023/07/06 10:42:33;;;;;;;3.35;1.42;;;12.10;99.90;;;;;;21030545;28;20098;-43
2023/07/06 10:52:57;;;;;;;3.10;1.25;;;11.90;99.90;;;;;;21057066;28;20067;-47
2023/07/06 11:03:01;;;;;;;3.50;1.13;;;12.00;99.90;;;;;;21038997;28;20465;-52
2023/07/06 11:13:04;;;;;;;4.68;1.40;;;13.00;99.90;;;;;;21046453;28;20121;-48
2023/07/06 11:23:14;;;;;;;2.58;1.30;;;13.50;99.90;;;;;;21026140;28;20067;-49
2023/07/06 11:33:33;;;;;;;2.97;1.38;;;13.70;99.90;;;;;;21043135;28;20067;-51
2023/07/06 11:43:57;;;;;;;3.33;1.33;;;14.30;99.90;;;;;;21039265;28;20783;-50
2023/07/06 11:54:01;;;;;;;3.03;1.10;;;15.40;99.90;;;;;;21039045;28;20064;-49
2023/07/06 12:04:04;;;;;;;3.00;1.25;;;16.60;99.90;;;;;;21024160;28;20071;-51
2023/07/06 12:14:16;;;;;;;3.13;1.30;;;18.80;99.90;;;;;;21010651;28;20146;-44
2023/07/06 12:24:23;;;;;;;3.35;1.42;;;21.70;99.90;;;;;;21027761;28;20071;-57
2023/07/06 12:34:32;;;;;;;3.17;1.20;;;22.90;99.90;;;;;;21007593;28;20577;-56
2023/07/06 12:44:34;;;;;;;2.45;1.35;;;23.50;99.90;;;;;;21011933;28;20140;-55
2023/07/06 12:54:36;;;;;;;2.42;1.40;;;22.80;99.90;;;;;;21000703;28;20115;-57
2023/07/06 13:04:46;;;;;;;3.28;1.25;;;24.20;98.80;;;;;;20986840;28;20141;-58
2023/07/06 13:14:50;;;;;;;2.58;1.30;;;24.80;99.90;;;;;;21001342;28;20493;-58
2023/07/06 13:24:52;;;;;;;2.67;1.27;;;24.90;97.20;;;;;;21004738;28;20557;-58
2023/07/06 13:34:54;;;;;;;3.33;1.10;;;24.80;99.90;;;;;;21013686;28;20095;-58
2023/07/06 13:44:58;;;;;;;1.90;1.08;;;25.00;99.90;;;;;;21036375;28;20079;-58
2023/07/06 13:54:59;;;;;;;2.22;1.17;;;25.30;99.90;;;;;;21062988;28;20441;-53
2023/07/06 14:05:01;;;;;;;2.63;1.33;;;25.30;99.50;;;;;;21020382;28;20076;-58
2023/07/06 14:15:03;;;;;;;1.95;1.45;;;24.90;99.60;;;;;;20992305;28;20116;-57
2023/07/06 14:25:18;;;;;;;6.40;1.30;;;25.00;98.70;;;;;;21000446;28;20072;-54
2023/07/06 14:35:19;;;;;;;5.15;1.55;;;23.90;99.90;;;;;;21009150;28;20122;-57
2023/07/06 14:45:25;;;;;;;2.38;1.58;;;24.40;99.90;;;;;;21021777;28;20573;-55
2023/07/06 14:55:28;;;;;;;1.75;1.50;;;24.40;99.90;;;;;;21009153;28;20129;-57
2023/07/06 15:05:31;;;;;;;2.85;1.80;;;24.10;99.90;;;;;;21031693;28;20067;-56
2023/07/06 15:15:33;;;;;;;3.40;1.92;;;23.60;99.90;;;;;;21032572;28;20072;-47
2023/07/06 15:25:35;;;;;;;2.90;2.00;;;23.10;99.90;;;;;;21037922;28;20067;-46
2023/07/06 15:35:37;;;;;;;2.88;1.88;;;22.50;99.90;;;;;;21029394;28;20130;-53
2023/07/06 15:45:40;;;;;;;6.70;2.55;;;21.50;99.90;;;;;;20998412;28;20079;-54
2023/07/06 15:55:41;;;;;;;4.95;2.40;;;20.30;99.90;;;;;;21003518;28;20139;-55
2023/07/06 16:05:47;;;;;;;4.43;2.67;;;19.50;99.90;;;;;;21000223;28;20458;-51
2023/07/06 16:15:49;;;;;;;4.47;2.25;;;19.80;99.90;;;;;;21008273;28;20153;-52
2023/07/06 16:25:50;;;;;;;4.18;3.10;;;19.30;99.90;;;;;;20994221;28;20055;-45
2023/07/06 16:35:52;;;;;;;3.63;2.22;;;18.90;99.90;;;;;;21003130;28;20584;-50
2023/07/06 16:45:53;;;;;;;4.07;2.60;;;18.80;99.90;;;;;;21015347;28;20125;-49
2023/07/06 16:55:56;;;;;;;3.40;2.28;;;18.60;99.90;;;;;;21015640;28;20134;-50
2023/07/06 17:05:58;;;;;;;4.65;2.30;;;18.40;99.90;;;;;;20996457;28;20072;-51
2023/07/06 17:16:00;;;;;;;3.35;2.15;;;18.00;99.90;;;;;;20993258;28;20498;-50
2023/07/06 17:26:03;;;;;;;2.63;1.80;;;17.60;99.90;;;;;;21017775;28;20076;-52
2023/07/06 17:36:06;;;;;;;4.15;1.63;;;17.60;99.90;;;;;;21013159;28;20123;-49
2023/07/06 17:46:08;;;;;;;2.85;1.73;;;17.60;99.90;;;;;;21029273;28;20155;-50
2023/07/06 17:56:10;;;;;;;3.13;2.20;;;17.00;99.90;;;;;;21011078;28;20176;-49
2023/07/06 18:06:11;;;;;;;4.10;2.03;;;16.30;99.90;;;;;;21039712;28;20179;-44
2023/07/06 18:16:13;;;;;;;3.03;1.80;;;15.80;99.90;;;;;;21022865;28;20547;-52
2023/07/06 18:26:15;;;;;;;4.55;2.42;;;15.20;99.90;;;;;;21037634;28;20087;-51
2023/07/06 18:36:17;;;;;;;4.53;2.72;;;14.70;99.90;;;;;;21034665;28;20118;-48
2023/07/06 18:46:19;;;;;;;3.53;2.20;;;14.20;99.90;;;;;;20994120;28;20550;-45
2023/07/06 18:56:24;;;;;;;3.22;2.50;;;14.00;99.90;;;;;;21011723;28;20511;-49
2023/07/06 19:06:26;;;;;;;4.20;2.63;;;13.80;99.90;;;;;;21019634;28;20087;-51
2023/07/06 19:16:28;;;;;;;5.75;2.42;;;13.30;99.90;;;;;;20997725;28;20068;-49
2023/07/06 19:26:31;;;;;;;4.72;2.28;;;12.80;99.90;;;;;;20997497;28;20457;-48
2023/07/06 19:36:33;;;;;;;3.20;1.92;;;12.50;99.90;;;;;;21013603;28;20119;-44
2023/07/06 19:46:34;;;;;;;6.43;3.28;;;12.50;99.90;;;;;;21003634;28;20167;-44
2023/07/06 19:56:36;;;;;;;4.57;2.17;;;12.60;99.90;;;;;;21039861;28;20477;-49
2023/07/06 20:06:39;;;;;;;5.50;3.40;;;12.90;99.90;;;;;;21024285;28;20067;-54
2023/07/06 20:16:41;;;;;;;3.08;1.80;;;13.10;99.90;;;;;;21013044;28;20674;-47
2023/07/06 20:26:44;;;;;;;2.97;1.17;;;13.20;99.90;;;;;;20999695;28;20068;-49
2023/07/06 20:36:46;;;;;;;2.35;0.98;;;13.30;99.90;;;;;;21010299;28;20132;-50
2023/07/06 20:46:47;;;;;;;4.18;1.20;;;13.20;99.90;;;;;;21013518;28;20579;-51
2023/07/06 20:56:50;;;;;;;2.20;1.42;;;13.00;99.90;;;;;;21019000;28;20585;-45
2023/07/06 21:06:51;;;;;;;3.47;1.08;;;12.90;99.90;;;;;;21036979;28;20059;-50
2023/07/06 21:16:53;;;;;;;1.88;1.10;;;12.80;99.90;;;;;;21027687;28;20117;-52
2023/07/06 21:26:55;;;;;;;1.55;1.00;;;12.80;99.90;;;;;;21030415;28;20068;-51
2023/07/06 21:36:57;;;;;;;2.75;1.13;;;12.90;99.90;;;;;;21040605;28;20068;-44
2023/07/06 21:47:01;;;;;;;2.42;1.58;;;12.90;99.90;;;;;;21018509;28;20505;-47
2023/07/06 21:57:02;;;;;;;1.92;1.05;;;12.80;99.90;;;;;;21024167;28;20450;-49
2023/07/06 22:07:04;;;;;;;2.65;1.67;;;12.70;99.90;;;;;;21006153;28;20072;-50
2023/07/06 22:17:06;;;;;;;5.18;1.42;;;12.90;99.90;;;;;;21025410;28;20151;-50
2023/07/06 22:27:08;;;;;;;3.03;1.50;;;12.50;99.90;;;;;;21018283;28;20093;-48
2023/07/06 22:37:09;;;;;;;2.88;1.48;;;12.40;99.90;;;;;;21027057;28;20071;-48
2023/07/06 22:47:11;;;;;;;2.65;1.30;;;12.30;99.90;;;;;;21029596;28;20849;-48
2023/07/06 22:57:12;;;;;;;1.98;1.20;;;12.30;99.90;;;;;;21013953;28;20067;-50
2023/07/06 23:07:14;;;;;;;2.17;1.35;;;12.40;99.90;;;;;;21007920;28;20467;-49
2023/07/06 23:17:16;;;;;;;1.90;1.25;;;12.40;99.90;;;;;;20988642;28;20072;-43
2023/07/06 23:27:18;;;;;;;2.35;1.30;;;12.00;99.90;;;;;;21015926;28;20087;-51
2023/07/06 23:37:22;;;;;;;1.67;1.08;;;11.90;99.90;;;;;;21000868;28;20637;-48
2023/07/06 23:47:24;;;;;;;2.47;1.23;;;11.90;99.90;;;;;;21005305;28;20087;-49
2023/07/06 23:57:26;;;;;;;3.25;1.30;;;11.70;99.90;;;;;;21022037;28;20451;-50
